createdAt,value
2022-09-10T00:02:04.095Z,102152.88
2022-09-10T00:05:13.011Z,102151.16
2022-09-10T00:08:20.010Z,102149.56
2022-09-10T00:11:26.651Z,102146.06
2022-09-10T00:14:32.208Z,102141.88
2022-09-10T00:17:39.285Z,102142.75
2022-09-10T00:20:45.179Z,102135.94
2022-09-10T00:23:50.946Z,102133.41
2022-09-10T00:26:56.627Z,102138.50
2022-09-10T00:30:03.808Z,102141.06
2022-09-10T00:33:20.942Z,102141.94
2022-09-10T00:36:29.722Z,102137.66
2022-09-10T00:39:35.271Z,102138.56
2022-09-10T00:42:43.559Z,102141.06
2022-09-10T00:45:53.241Z,102133.41
2022-09-10T00:49:03.226Z,102133.47
2022-09-10T00:52:12.344Z,102132.59
2022-09-10T00:55:19.710Z,102124.91
2022-09-10T00:58:26.855Z,102127.47
2022-09-10T01:01:33.675Z,102124.91
2022-09-10T01:04:41.791Z,102117.22
2022-09-10T01:07:48.267Z,102124.91
2022-09-10T01:11:06.802Z,102119.81
2022-09-10T01:14:49.402Z,102116.47
2022-09-10T01:18:12.243Z,102117.38
2022-09-10T01:21:27.826Z,102118.22
2022-09-10T01:24:55.812Z,102113.16
2022-09-10T01:28:08.455Z,102109.72
2022-09-10T01:31:24.400Z,102108.97
2022-09-10T01:34:34.502Z,102110.59
2022-09-10T01:37:47.811Z,102102.91
2022-09-10T01:40:56.122Z,102102.94
2022-09-10T01:44:11.471Z,102105.50
2022-09-10T01:47:33.679Z,102096.97
2022-09-10T01:50:45.047Z,102097.94
2022-09-10T01:54:15.669Z,102102.19
2022-09-10T01:57:33.485Z,102095.34
2022-09-10T02:00:45.928Z,102094.50
2022-09-10T02:03:56.888Z,102086.84
2022-09-10T02:07:05.274Z,102080.91
2022-09-10T02:10:11.982Z,102091.97
2022-09-10T02:13:24.502Z,102097.06
2022-09-10T02:16:55.648Z,102087.66
2022-09-10T02:20:02.857Z,102096.22
2022-09-10T02:23:11.318Z,102086.03
2022-09-10T02:26:17.766Z,102096.22
2022-09-10T02:29:23.570Z,102090.31
2022-09-10T02:32:30.856Z,102092.91
2022-09-10T02:35:37.678Z,102092.84
2022-09-10T02:38:44.347Z,102086.03
2022-09-10T02:41:49.926Z,102082.59
2022-09-10T02:44:56.616Z,102091.94
2022-09-10T02:48:04.962Z,102086.81
2022-09-10T02:51:15.439Z,102082.53
2022-09-10T02:54:22.762Z,102079.97
2022-09-10T02:57:28.971Z,102079.09
2022-09-10T03:00:34.843Z,102079.91
2022-09-10T03:03:41.823Z,102074.75
2022-09-10T03:06:49.569Z,102077.28
2022-09-10T03:09:55.219Z,102073.00
2022-09-10T03:13:01.645Z,102069.63
2022-09-10T03:16:09.622Z,102075.56
2022-09-10T03:19:17.809Z,102076.44
2022-09-10T03:22:23.579Z,102072.13
2022-09-10T03:25:29.495Z,102071.16
2022-09-10T03:28:37.517Z,102070.28
2022-09-10T03:31:46.458Z,102068.59
2022-09-10T03:34:55.641Z,102070.25
2022-09-10T03:38:02.566Z,102058.25
2022-09-10T03:41:08.661Z,102064.13
2022-09-10T03:44:15.954Z,102062.38
2022-09-10T03:47:22.461Z,102061.47
2022-09-10T03:50:30.999Z,102064.00
2022-09-10T03:53:36.320Z,102060.59
2022-09-10T03:56:42.796Z,102062.22
2022-09-10T03:59:49.945Z,102055.31
2022-09-10T04:02:55.418Z,102051.00
2022-09-10T04:06:02.147Z,102057.69
2022-09-10T04:09:08.507Z,102061.94
2022-09-10T04:12:16.855Z,102060.22
2022-09-10T04:15:24.640Z,102049.91
2022-09-10T04:18:51.999Z,102055.78
2022-09-10T04:22:19.807Z,102046.31
2022-09-10T04:25:27.461Z,102042.91
2022-09-10T04:28:47.350Z,102039.47
2022-09-10T04:31:55.401Z,102038.56
2022-09-10T04:35:02.529Z,102041.97
2022-09-10T04:38:11.115Z,102046.13
2022-09-10T04:41:19.607Z,102044.34
2022-09-10T04:44:27.895Z,102046.88
2022-09-10T04:47:34.326Z,102047.72
2022-09-10T04:50:59.238Z,102049.31
2022-09-10T04:54:14.506Z,102045.00
2022-09-10T04:57:20.949Z,102050.06
2022-09-10T05:00:27.482Z,102044.06
2022-09-10T05:03:33.181Z,102059.44
2022-09-10T05:06:40.146Z,102047.31
2022-09-10T05:09:49.371Z,102049.78
2022-09-10T05:12:56.367Z,102042.00
2022-09-10T05:16:04.688Z,102045.38
2022-09-10T05:19:17.807Z,102045.28
2022-09-10T05:22:44.639Z,102043.41
2022-09-10T05:25:52.407Z,102035.72
2022-09-10T05:28:59.766Z,102034.75
2022-09-10T05:32:09.454Z,102047.44
2022-09-10T05:35:15.563Z,102041.28
2022-09-10T05:38:27.538Z,102040.28
2022-09-10T05:41:35.872Z,102041.94
2022-09-10T05:44:41.895Z,102043.50
2022-09-10T05:47:49.107Z,102037.44
2022-09-10T05:50:59.773Z,102045.13
2022-09-10T05:54:06.282Z,102044.13
2022-09-10T05:57:18.030Z,102038.88
2022-09-10T06:00:24.913Z,102037.97
2022-09-10T06:03:38.170Z,102040.50
2022-09-10T06:06:43.651Z,102032.78
2022-09-10T06:09:51.759Z,102034.47
2022-09-10T06:13:13.089Z,102039.41
2022-09-10T06:16:20.182Z,102035.13
2022-09-10T06:19:26.229Z,102032.53
2022-09-10T06:22:41.514Z,102046.16
2022-09-10T06:26:04.239Z,102041.81
2022-09-10T06:29:12.851Z,102047.72
2022-09-10T06:32:47.978Z,102041.66
2022-09-10T06:36:03.387Z,102039.03
2022-09-10T06:39:10.950Z,102046.63
2022-09-10T06:42:49.207Z,102043.97
2022-09-10T06:46:50.924Z,102032.66
2022-09-10T06:50:16.350Z,102041.13
2022-09-10T06:53:26.815Z,102037.56
2022-09-10T06:56:33.957Z,102035.72
2022-09-10T06:59:43.780Z,102035.66
2022-09-10T07:02:52.987Z,102031.31
2022-09-10T07:06:05.470Z,102032.94
2022-09-10T07:09:12.806Z,102043.22
2022-09-10T07:12:48.478Z,102040.53
2022-09-10T07:16:03.982Z,102049.09
2022-09-10T07:19:15.102Z,102041.31
2022-09-10T07:22:26.007Z,102036.97
2022-09-10T07:25:33.502Z,102036.91
2022-09-10T07:28:45.185Z,102030.81
2022-09-10T07:32:23.199Z,102028.13
2022-09-10T07:35:39.569Z,102029.75
2022-09-10T07:38:48.408Z,102021.84
2022-09-10T07:41:53.740Z,102032.09
2022-09-10T07:45:17.631Z,102030.25
2022-09-10T07:48:27.519Z,102023.28
2022-09-10T07:51:36.022Z,102025.78
2022-09-10T07:54:41.503Z,102024.81
2022-09-10T07:57:47.302Z,102029.09
2022-09-10T08:00:54.122Z,102023.97
2022-09-10T08:04:00.427Z,102023.81
2022-09-10T08:07:09.878Z,102020.25
2022-09-10T08:10:17.542Z,102024.44
2022-09-10T08:13:23.161Z,102022.56
2022-09-10T08:16:29.593Z,102025.09
2022-09-10T08:19:41.594Z,102033.56
2022-09-10T08:22:51.835Z,102014.59
2022-09-10T08:25:58.369Z,102028.16
2022-09-10T08:29:04.168Z,102027.19
2022-09-10T08:32:12.288Z,102031.28
2022-09-10T08:35:18.437Z,102015.00
2022-09-10T08:38:27.044Z,102014.94
2022-09-10T08:41:44.007Z,102020.78
2022-09-10T08:44:59.961Z,102015.50
2022-09-10T08:48:16.395Z,102018.84
2022-09-10T08:51:28.474Z,102019.56
2022-09-10T08:54:41.561Z,102015.13
2022-09-10T08:57:50.941Z,102015.97
2022-09-10T09:01:00.239Z,102021.72
2022-09-10T09:04:12.487Z,102018.72
2022-09-10T09:07:20.974Z,102006.56
2022-09-10T09:10:41.373Z,102010.78
2022-09-10T09:14:05.426Z,102008.88
2022-09-10T09:17:46.393Z,102006.97
2022-09-10T09:20:55.815Z,102010.50
2022-09-10T09:24:13.228Z,102006.13
2022-09-10T09:27:30.577Z,102006.06
2022-09-10T09:30:39.351Z,102005.84
2022-09-10T09:33:45.382Z,102011.69
2022-09-10T09:36:53.125Z,102003.56
2022-09-10T09:40:09.511Z,102011.22
2022-09-10T09:43:26.467Z,102013.91
2022-09-10T09:46:34.421Z,102006.19
2022-09-10T09:49:43.146Z,102014.66
2022-09-10T09:52:48.927Z,102004.47
2022-09-10T09:55:56.401Z,102007.09
2022-09-10T09:59:14.952Z,102015.53
2022-09-10T10:02:23.833Z,102013.81
2022-09-10T10:05:29.114Z,102010.34
2022-09-10T10:08:40.034Z,102006.66
2022-09-10T10:11:52.428Z,102010.19
2022-09-10T10:15:00.397Z,101998.69
2022-09-10T10:18:31.715Z,101997.97
2022-09-10T10:21:37.396Z,102001.06
2022-09-10T10:24:44.042Z,101999.97
2022-09-10T10:27:51.350Z,101999.97
2022-09-10T10:31:01.178Z,101990.59
2022-09-10T10:34:45.328Z,101998.31
2022-09-10T10:38:14.927Z,101989.69
2022-09-10T10:41:46.337Z,101998.13
2022-09-10T10:45:23.154Z,101995.28
2022-09-10T10:48:44.719Z,101995.13
2022-09-10T10:51:57.106Z,101991.94
2022-09-10T10:55:14.331Z,101989.41
2022-09-10T10:58:39.206Z,101989.03
2022-09-10T11:01:51.198Z,101985.63
2022-09-10T11:05:02.481Z,101987.06
2022-09-10T11:08:15.032Z,101990.69
2022-09-10T11:11:24.018Z,101991.47
2022-09-10T11:14:35.998Z,101985.66
2022-09-10T11:17:47.268Z,101978.38
2022-09-10T11:21:03.491Z,101985.63
2022-09-10T11:24:16.956Z,101981.16
2022-09-10T11:27:27.110Z,101980.34
2022-09-10T11:30:34.318Z,101971.50
2022-09-10T11:33:47.375Z,101976.78
2022-09-10T11:36:57.387Z,101976.78
2022-09-10T11:40:06.678Z,101970.66
2022-09-10T11:43:16.091Z,101966.66
2022-09-10T11:46:26.402Z,101964.88
2022-09-10T11:49:42.573Z,101965.47
2022-09-10T11:52:49.523Z,101963.19
2022-09-10T11:56:42.978Z,101969.56
2022-09-10T12:00:08.682Z,101971.41
2022-09-10T12:03:48.773Z,101969.38
2022-09-10T12:07:03.874Z,101964.13
2022-09-10T12:10:19.712Z,101960.75
2022-09-10T12:13:25.427Z,101958.44
2022-09-10T12:16:37.953Z,101950.53
2022-09-10T12:19:47.429Z,101953.16
2022-09-10T12:22:55.158Z,101959.25
2022-09-10T12:26:08.627Z,101948.41
2022-09-10T12:29:34.935Z,101946.00
2022-09-10T12:32:40.338Z,101950.06
2022-09-10T12:35:48.446Z,101949.22
2022-09-10T12:39:25.862Z,101950.84
2022-09-10T12:42:36.737Z,101947.38
2022-09-10T12:46:03.945Z,101948.13
2022-09-10T12:49:13.707Z,101947.47
2022-09-10T12:52:24.924Z,101944.94
2022-09-10T12:55:42.755Z,101942.47
2022-09-10T12:59:03.859Z,101937.78
2022-09-10T13:02:22.966Z,101941.78
2022-09-10T13:05:33.266Z,101934.22
2022-09-10T13:08:42.468Z,101944.44
2022-09-10T13:11:51.657Z,101936.84
2022-09-10T13:15:01.861Z,101940.91
2022-09-10T13:18:30.655Z,101934.94
2022-09-10T13:21:54.873Z,101927.25
2022-09-10T13:25:04.557Z,101933.88
2022-09-10T13:29:11.344Z,101928.19
2022-09-10T13:32:28.864Z,101929.78
2022-09-10T13:36:06.826Z,101932.63
2022-09-10T13:39:47.065Z,101920.56
2022-09-10T13:43:22.089Z,101920.66
2022-09-10T13:46:35.260Z,101917.09
2022-09-10T13:49:51.605Z,101916.19
2022-09-10T13:53:00.454Z,101909.06
2022-09-10T13:56:14.011Z,101917.50
2022-09-10T13:59:26.454Z,101908.09
2022-09-10T14:02:47.425Z,101907.38
2022-09-10T14:05:55.993Z,101903.63
2022-09-10T14:09:05.783Z,101898.53
2022-09-10T14:12:13.874Z,101909.88
2022-09-10T14:15:21.669Z,101896.88
2022-09-10T14:18:35.394Z,101899.34
2022-09-10T14:21:42.213Z,101904.50
2022-09-10T14:24:54.414Z,101899.34
2022-09-10T14:28:24.482Z,101910.91
2022-09-10T14:31:36.916Z,101908.13
2022-09-10T14:34:42.280Z,101899.56
2022-09-10T14:37:49.091Z,101907.16
2022-09-10T14:41:04.362Z,101903.78
2022-09-10T14:44:17.909Z,101901.19
2022-09-10T14:47:34.850Z,101895.00
2022-09-10T14:50:43.246Z,101900.84
2022-09-10T14:53:53.569Z,101905.69
2022-09-10T14:57:00.126Z,101908.00
2022-09-10T15:00:06.859Z,101901.94
2022-09-10T15:03:17.147Z,101910.53
2022-09-10T15:06:26.132Z,101914.84
2022-09-10T15:09:33.401Z,101908.50
2022-09-10T15:12:40.885Z,101905.56
2022-09-10T15:15:47.071Z,101907.09
2022-09-10T15:18:52.269Z,101905.38
2022-09-10T15:21:58.701Z,101907.66
2022-09-10T15:25:10.078Z,101908.66
2022-09-10T15:28:16.350Z,101901.56
2022-09-10T15:31:23.300Z,101907.16
2022-09-10T15:34:28.745Z,101898.41
2022-09-10T15:37:34.004Z,101909.78
2022-09-10T15:40:40.882Z,101912.91
2022-09-10T15:43:46.331Z,101907.44
2022-09-10T15:46:52.065Z,101916.09
2022-09-10T15:49:57.414Z,101914.31
2022-09-10T15:53:02.989Z,101908.50
2022-09-10T15:56:11.802Z,101904.19
2022-09-10T15:59:17.493Z,101893.47
2022-09-10T16:02:22.874Z,101898.53
2022-09-10T16:05:28.959Z,101897.66
2022-09-10T16:08:35.014Z,101896.03
2022-09-10T16:11:43.368Z,101897.66
2022-09-10T16:14:48.677Z,101902.94
2022-09-10T16:17:54.026Z,101900.41
2022-09-10T16:21:09.302Z,101907.66
2022-09-10T16:24:14.659Z,101903.34
2022-09-10T16:27:21.827Z,101898.28
2022-09-10T16:30:28.278Z,101913.72
2022-09-10T16:33:33.710Z,101905.75
2022-09-10T16:36:40.371Z,101904.56
2022-09-10T16:39:45.714Z,101893.41
2022-09-10T16:42:53.375Z,101902.69
2022-09-10T16:45:58.643Z,101901.81
2022-09-10T16:49:04.155Z,101896.00
2022-09-10T16:52:10.957Z,101901.25
2022-09-10T16:55:17.008Z,101901.44
2022-09-10T16:58:23.633Z,101894.50
2022-09-10T17:01:29.594Z,101894.63
2022-09-10T17:04:34.939Z,101892.94
2022-09-10T17:07:40.539Z,101889.56
2022-09-10T17:10:45.738Z,101884.59
2022-09-10T17:13:52.695Z,101893.03
2022-09-10T17:16:58.630Z,101887.97
2022-09-10T17:20:04.452Z,101889.69
2022-09-10T17:23:11.069Z,101894.72
2022-09-10T17:26:16.399Z,101889.09
2022-09-10T17:29:25.239Z,101883.06
2022-09-10T17:32:31.480Z,101886.56
2022-09-10T17:35:36.790Z,101885.91
2022-09-10T17:38:42.352Z,101878.06
2022-09-10T17:41:48.359Z,101895.47
2022-09-10T17:44:55.482Z,101894.44
2022-09-10T17:48:00.716Z,101901.31
2022-09-10T17:51:07.415Z,101889.47
2022-09-10T17:54:13.425Z,101892.03
2022-09-10T17:57:19.525Z,101903.19
2022-09-10T18:00:26.159Z,101895.28
2022-09-10T18:03:31.720Z,101899.72
2022-09-10T18:06:37.765Z,101907.44
2022-09-10T18:09:43.327Z,101899.00
2022-09-10T18:12:48.562Z,101899.94
2022-09-10T18:15:55.486Z,101904.06
2022-09-10T18:19:03.181Z,101903.19
2022-09-10T18:22:09.110Z,101900.56
2022-09-10T18:25:14.875Z,101902.34
2022-09-10T18:28:20.208Z,101899.72
2022-09-10T18:31:31.572Z,101905.75
2022-09-10T18:34:39.805Z,101909.22
2022-09-10T18:37:46.739Z,101912.13
2022-09-10T18:40:52.431Z,101914.53
2022-09-10T18:44:00.771Z,101907.84
2022-09-10T18:47:28.059Z,101914.56
2022-09-10T18:50:36.434Z,101913.81
2022-09-10T18:54:07.830Z,101908.47
2022-09-10T18:57:14.763Z,101920.56
2022-09-10T19:00:20.325Z,101914.47
2022-09-10T19:03:27.625Z,101928.25
2022-09-10T19:06:36.028Z,101927.50
2022-09-10T19:09:42.294Z,101919.69
2022-09-10T19:12:48.074Z,101932.66
2022-09-10T19:15:56.544Z,101937.00
2022-09-10T19:19:06.721Z,101936.28
2022-09-10T19:22:13.639Z,101934.63
2022-09-10T19:25:19.169Z,101931.22
2022-09-10T19:28:25.802Z,101934.81
2022-09-10T19:31:35.849Z,101928.78
2022-09-10T19:34:43.551Z,101927.34
2022-09-10T19:37:49.829Z,101930.78
2022-09-10T19:41:04.687Z,101932.44
2022-09-10T19:44:13.313Z,101931.56
2022-09-10T19:47:20.394Z,101932.16
2022-09-10T19:50:29.196Z,101933.03
2022-09-10T19:53:35.399Z,101930.41
2022-09-10T19:56:43.118Z,101927.88
2022-09-10T19:59:49.061Z,101927.03
2022-09-10T20:02:54.487Z,101921.03
2022-09-10T20:06:01.800Z,101924.66
2022-09-10T20:09:10.911Z,101925.38
2022-09-10T20:12:17.334Z,101933.38
2022-09-10T20:15:23.862Z,101922.25
2022-09-10T20:18:30.552Z,101926.50
2022-09-10T20:21:38.390Z,101916.97
2022-09-10T20:24:44.494Z,101921.94
2022-09-10T20:27:51.673Z,101914.38
2022-09-10T20:30:58.097Z,101915.28
2022-09-10T20:34:05.893Z,101907.41
2022-09-10T20:37:15.552Z,101905.66
2022-09-10T20:40:22.086Z,101910.19
2022-09-10T20:43:28.291Z,101910.28
2022-09-10T20:46:34.900Z,101912.03
2022-09-10T20:49:40.849Z,101913.81
2022-09-10T20:52:47.641Z,101910.31
2022-09-10T20:55:53.966Z,101906.81
2022-09-10T20:59:00.048Z,101903.47
2022-09-10T21:02:05.798Z,101909.44
2022-09-10T21:05:13.439Z,101906.94
2022-09-10T21:08:22.262Z,101907.75
2022-09-10T21:11:30.777Z,101903.47
2022-09-10T21:14:36.878Z,101900.00
2022-09-10T21:17:44.171Z,101903.59
2022-09-10T21:20:49.262Z,101900.16
2022-09-10T21:23:58.182Z,101903.53
2022-09-10T21:27:04.170Z,101899.09
2022-09-10T21:30:13.179Z,101901.09
2022-09-10T21:33:22.462Z,101895.19
2022-09-10T21:36:29.435Z,101890.72
2022-09-10T21:39:36.185Z,101885.78
2022-09-10T21:42:42.842Z,101888.16
2022-09-10T21:45:48.487Z,101884.69
2022-09-10T21:48:55.250Z,101888.16
2022-09-10T21:52:01.014Z,101892.59
2022-09-10T21:55:10.230Z,101893.50
2022-09-10T21:58:18.449Z,101893.59
2022-09-10T22:01:26.575Z,101887.78
2022-09-10T22:04:32.562Z,101893.59
2022-09-10T22:07:39.139Z,101895.41
2022-09-10T22:10:46.155Z,101896.47
2022-09-10T22:13:54.173Z,101902.22
2022-09-10T22:17:00.604Z,101899.56
2022-09-10T22:20:08.635Z,101893.44
2022-09-10T22:23:15.679Z,101900.34
2022-09-10T22:26:24.906Z,101899.69
2022-09-10T22:29:32.019Z,101903.84
2022-09-10T22:32:40.766Z,101907.28
2022-09-10T22:35:47.098Z,101902.03
2022-09-10T22:38:56.193Z,101897.16
2022-09-10T22:42:04.462Z,101892.97
2022-09-10T22:45:12.514Z,101895.50
2022-09-10T22:48:20.143Z,101897.94
2022-09-10T22:51:29.549Z,101897.31
2022-09-10T22:54:35.886Z,101902.28
2022-09-10T22:57:45.253Z,101894.63
2022-09-10T23:00:51.226Z,101893.50
2022-09-10T23:04:00.457Z,101896.97
2022-09-10T23:07:07.127Z,101898.22
2022-09-10T23:10:17.138Z,101891.31
2022-09-10T23:13:26.226Z,101896.53
2022-09-10T23:16:34.286Z,101893.16
2022-09-10T23:19:40.850Z,101895.63
2022-09-10T23:22:49.902Z,101895.50
2022-09-10T23:25:56.876Z,101889.72
2022-09-10T23:29:06.641Z,101887.88
2022-09-10T23:32:37.079Z,101890.59
2022-09-10T23:35:56.799Z,101888.78
2022-09-10T23:39:06.437Z,101887.09
2022-09-10T23:42:33.547Z,101882.16
2022-09-10T23:46:00.557Z,101879.56
2022-09-10T23:49:33.498Z,101874.34
2022-09-10T23:52:53.201Z,101880.47
2022-09-10T23:56:02.838Z,101871.69
2022-09-10T23:59:19.494Z,101875.16
